Time;durP1;ratioP1;P1;durP2;ratioP2;P2;SDS_P1;SDS_P2;PMS_P1;PMS_P2;Temp;Humidity;BMP_temperature;BMP_pressure;BME280_temperature;BME280_humidity;BME280_pressure;Samples;Min_cycle;Max_cycle;Signal;HPM_P1;HPM_P2
2023/10/12 00:02:27;;;;;;;3.90;1.73;;;14.90;99.90;;;;;;4986303;28;90235;-31
2023/10/12 00:05:17;;;;;;;6.97;2.35;;;15.00;99.90;;;;;;4998726;28;91042;-34
2023/10/12 00:07:45;;;;;;;7.35;2.05;;;14.90;99.90;;;;;;4997273;28;90239;-32
2023/10/12 00:12:44;;;;;;;4.07;1.77;;;14.70;99.90;;;;;;5017259;28;89005;-32
2023/10/12 00:17:52;;;;;;;6.38;2.15;;;14.60;99.90;;;;;;4986878;28;90234;-33
2023/10/12 00:20:39;;;;;;;6.57;1.67;;;14.60;99.90;;;;;;4995530;28;89575;-33
2023/10/12 00:23:09;;;;;;;5.73;2.53;;;14.50;99.90;;;;;;4997715;28;88412;-33
2023/10/12 00:25:46;;;;;;;7.93;2.75;;;14.50;99.90;;;;;;4998199;28;89851;-33
2023/10/12 00:28:19;;;;;;;6.93;1.85;;;14.40;99.90;;;;;;4998212;28;91682;-34
2023/10/12 00:30:54;;;;;;;6.15;2.25;;;14.30;99.90;;;;;;4998388;28;90326;-33
2023/10/12 00:33:20;;;;;;;3.88;2.22;;;14.30;99.90;;;;;;4997133;28;91351;-34
2023/10/12 00:36:01;;;;;;;5.38;2.20;;;14.40;99.90;;;;;;4999147;28;90228;-34
2023/10/12 00:38:29;;;;;;;4.85;2.22;;;14.40;99.90;;;;;;4989883;28;90210;-31
2023/10/12 00:41:04;;;;;;;1.67;1.30;;;14.30;99.90;;;;;;5001538;28;89887;-33
2023/10/12 00:43:41;;;;;;;6.60;1.75;;;14.30;99.90;;;;;;5001688;28;88772;-33
2023/10/12 00:49:13;;;;;;;8.02;2.33;;;14.30;99.90;;;;;;4999862;28;90130;-32
2023/10/12 00:51:34;;;;;;;2.20;1.52;;;14.30;99.90;;;;;;4999893;28;88996;-34
2023/10/12 00:53:59;;;;;;;5.22;2.03;;;14.20;99.90;;;;;;5000394;28;89030;-34
2023/10/12 00:56:26;;;;;;;4.32;2.10;;;14.20;99.90;;;;;;5001439;28;90794;-34
2023/10/12 00:58:55;;;;;;;5.38;2.28;;;14.20;99.90;;;;;;4999959;28;89677;-31
2023/10/12 01:01:20;;;;;;;5.25;2.50;;;14.20;99.90;;;;;;5000760;28;88101;-33
2023/10/12 01:03:47;;;;;;;3.70;2.08;;;14.00;99.90;;;;;;5019429;28;89530;-34
2023/10/12 01:08:43;;;;;;;5.72;2.30;;;14.10;99.90;;;;;;5006464;28;89896;-32
2023/10/12 01:11:25;;;;;;;4.97;2.20;;;14.10;99.90;;;;;;5016185;28;89511;-35
2023/10/12 01:17:10;;;;;;;4.60;2.58;;;14.10;99.90;;;;;;5000807;28;90508;-34
2023/10/12 01:19:31;;;;;;;3.30;1.88;;;14.10;99.90;;;;;;4983752;28;90001;-34
2023/10/12 01:22:08;;;;;;;9.90;2.45;;;14.10;99.90;;;;;;5000493;28;89478;-33
2023/10/12 01:24:33;;;;;;;6.50;1.85;;;14.10;99.90;;;;;;5000138;28;89099;-34
2023/10/12 01:26:59;;;;;;;5.65;1.75;;;14.00;99.90;;;;;;5001057;28;90473;-33
2023/10/12 01:29:25;;;;;;;14.27;2.53;;;14.10;99.90;;;;;;4999533;28;90987;-34
2023/10/12 01:34:36;;;;;;;7.38;2.10;;;14.00;99.90;;;;;;4999853;28;88189;-33
2023/10/12 01:37:11;;;;;;;5.82;1.85;;;14.00;99.90;;;;;;5000338;28;89702;-34
2023/10/12 01:39:41;;;;;;;6.95;2.35;;;14.00;99.90;;;;;;5004408;28;88324;-34
2023/10/12 01:42:07;;;;;;;5.28;2.00;;;14.00;99.90;;;;;;5020448;28;89490;-32
2023/10/12 01:44:34;;;;;;;6.72;1.73;;;14.00;99.90;;;;;;5005515;28;89168;-33
2023/10/12 01:46:59;;;;;;;5.22;2.40;;;14.00;99.90;;;;;;5019982;28;89474;-30
2023/10/12 01:49:25;;;;;;;5.68;2.17;;;14.00;99.90;;;;;;5000168;28;89658;-33
2023/10/12 01:51:50;;;;;;;4.22;2.65;;;13.90;99.90;;;;;;4999022;28;89284;-33
2023/10/12 01:54:22;;;;;;;4.70;2.35;;;13.90;99.90;;;;;;4999776;28;89816;-33
2023/10/12 01:56:52;;;;;;;7.00;2.53;;;13.90;99.90;;;;;;4999949;28;90308;-34
2023/10/12 01:59:20;;;;;;;6.50;2.60;;;13.90;99.90;;;;;;5011601;28;89894;-32
2023/10/12 02:04:30;;;;;;;3.58;2.10;;;13.90;99.90;;;;;;5008720;28;89630;-33
2023/10/12 02:06:56;;;;;;;4.68;1.90;;;13.90;99.90;;;;;;5017072;28;90369;-34
2023/10/12 02:09:22;;;;;;;6.03;2.30;;;13.90;99.90;;;;;;5020339;28;89695;-30
2023/10/12 02:11:53;;;;;;;5.47;2.20;;;13.90;99.90;;;;;;5016605;28;89848;-33
2023/10/12 02:14:32;;;;;;;7.35;2.80;;;13.80;99.90;;;;;;5008370;28;87635;-31
2023/10/12 02:17:02;;;;;;;5.28;2.17;;;13.80;99.90;;;;;;5001141;28;88868;-35
2023/10/12 02:19:39;;;;;;;3.80;2.42;;;13.70;99.90;;;;;;4999607;28;90698;-34
2023/10/12 02:22:05;;;;;;;5.72;2.72;;;13.70;99.90;;;;;;4998578;28;90333;-33
2023/10/12 02:24:35;;;;;;;2.53;1.70;;;13.80;99.90;;;;;;5000554;28;88376;-34
2023/10/12 02:27:01;;;;;;;6.22;3.10;;;13.70;99.90;;;;;;4986959;28;90241;-32
2023/10/12 02:29:29;;;;;;;6.85;2.70;;;13.70;99.90;;;;;;4995730;28;89946;-32
2023/10/12 02:32:15;;;;;;;6.83;2.77;;;13.70;99.90;;;;;;4967147;28;90250;-32
2023/10/12 02:34:42;;;;;;;5.45;2.30;;;13.70;99.90;;;;;;4998280;28;89549;-32
2023/10/12 02:39:40;;;;;;;6.30;2.95;;;13.70;99.90;;;;;;4998131;28;89906;-33
2023/10/12 02:47:22;;;;;;;9.30;2.17;;;13.70;99.90;;;;;;4998142;28;90464;-33
2023/10/12 02:50:00;;;;;;;4.30;2.30;;;13.60;99.90;;;;;;4980928;28;89299;-32
2023/10/12 02:52:27;;;;;;;4.53;2.40;;;13.70;99.90;;;;;;4998269;28;89588;-34
2023/10/12 02:54:55;;;;;;;5.13;2.53;;;13.60;99.90;;;;;;4999357;28;88090;-31
2023/10/12 02:57:24;;;;;;;7.47;3.25;;;13.60;99.90;;;;;;4997635;28;88755;-34
2023/10/12 03:00:20;;;;;;;8.30;3.00;;;13.60;99.90;;;;;;4998242;28;89539;-30
2023/10/12 03:02:52;;;;;;;9.07;2.88;;;13.60;99.90;;;;;;4998334;28;88871;-34
2023/10/12 03:05:30;;;;;;;8.40;2.53;;;13.60;99.90;;;;;;4998681;28;88436;-36
2023/10/12 03:07:56;;;;;;;5.72;2.15;;;13.60;99.90;;;;;;4992179;28;90227;-32
2023/10/12 03:10:26;;;;;;;6.72;2.65;;;13.60;99.90;;;;;;4996466;28;91121;-31
2023/10/12 03:12:55;;;;;;;6.85;2.13;;;13.60;99.90;;;;;;4998074;28;90237;-35
2023/10/12 03:15:46;;;;;;;5.93;2.58;;;13.60;99.90;;;;;;5001193;28;88669;-33
2023/10/12 03:18:12;;;;;;;9.32;3.22;;;13.60;99.90;;;;;;4998261;28;89980;-32
2023/10/12 03:20:52;;;;;;;6.82;2.63;;;13.50;99.90;;;;;;4998677;28;89438;-35
2023/10/12 03:23:19;;;;;;;6.93;2.42;;;13.50;99.90;;;;;;4997905;28;89164;-31
2023/10/12 03:25:46;;;;;;;13.27;3.08;;;13.50;99.90;;;;;;4998857;28;89526;-32
2023/10/12 03:28:29;;;;;;;5.57;2.90;;;13.50;99.90;;;;;;5004577;28;90402;-35
2023/10/12 03:30:57;;;;;;;3.58;2.03;;;13.40;99.90;;;;;;5017271;28;90074;-33
2023/10/12 03:33:35;;;;;;;3.47;2.38;;;13.40;99.90;;;;;;5018518;28;89035;-32
2023/10/12 03:36:17;;;;;;;5.60;2.90;;;13.40;99.90;;;;;;5015599;28;89419;-34
2023/10/12 03:38:43;;;;;;;7.72;2.80;;;13.40;99.90;;;;;;5016966;28;89950;-36
2023/10/12 03:44:01;;;;;;;6.45;3.72;;;13.40;99.90;;;;;;5002723;28;90247;-30
2023/10/12 03:46:27;;;;;;;11.98;4.32;;;13.30;99.90;;;;;;5006628;28;89092;-30
2023/10/12 03:49:16;;;;;;;7.75;3.67;;;13.30;99.90;;;;;;5003832;28;90137;-32
2023/10/12 03:51:42;;;;;;;5.72;3.88;;;13.30;99.90;;;;;;5005365;28;90207;-34
2023/10/12 03:54:26;;;;;;;4.40;3.05;;;13.30;99.90;;;;;;4990759;28;89275;-31
2023/10/12 03:57:03;;;;;;;4.57;2.65;;;13.30;99.90;;;;;;4998408;28;88286;-31
2023/10/12 04:02:24;;;;;;;6.18;3.13;;;13.30;99.90;;;;;;5000033;28;90390;-34
2023/10/12 04:05:16;;;;;;;7.05;3.67;;;13.30;99.90;;;;;;5010941;28;89977;-31
2023/10/12 04:11:13;;;;;;;4.63;3.05;;;13.30;99.90;;;;;;5017048;28;91517;-32
2023/10/12 04:13:08;;;;;;;12.82;4.43;;;13.20;99.90;;;;;;5020049;28;89982;-31
2023/10/12 04:16:08;;;;;;;7.72;3.83;;;13.30;99.90;;;;;;5006684;28;89425;-33
2023/10/12 04:18:32;;;;;;;7.22;2.80;;;13.20;99.90;;;;;;4989580;28;89394;-33
2023/10/12 04:21:03;;;;;;;4.10;2.88;;;13.20;99.90;;;;;;5010889;28;89909;-32
2023/10/12 04:23:49;;;;;;;11.02;4.03;;;13.20;99.90;;;;;;5017591;28;89768;-30
2023/10/12 04:28:50;;;;;;;4.90;3.17;;;13.30;99.90;;;;;;5012919;28;89207;-33
2023/10/12 04:31:33;;;;;;;6.55;3.42;;;13.30;99.90;;;;;;5002655;28;90320;-32
2023/10/12 04:34:07;;;;;;;4.15;2.88;;;13.30;99.90;;;;;;4991506;28;89536;-31
2023/10/12 04:39:15;;;;;;;6.65;3.78;;;13.20;99.90;;;;;;5000630;28;90292;-35
2023/10/12 04:41:57;;;;;;;4.35;3.05;;;13.20;99.90;;;;;;5000802;28;90601;-32
2023/10/12 04:46:51;;;;;;;6.25;3.60;;;13.20;99.90;;;;;;4994673;28;90376;-34
2023/10/12 04:51:49;;;;;;;10.80;4.13;;;13.20;99.90;;;;;;5020180;28;89944;-32
2023/10/12 04:54:23;;;;;;;6.45;3.03;;;13.20;99.90;;;;;;5013086;28;90345;-35
2023/10/12 04:56:57;;;;;;;6.22;3.15;;;13.20;99.90;;;;;;5012262;28;90344;-35
2023/10/12 04:59:42;;;;;;;6.28;3.20;;;13.20;99.90;;;;;;5000244;28;89178;-31
2023/10/12 05:09:49;;;;;;;8.52;4.03;;;13.20;99.90;;;;;;5015465;28;87636;-32
2023/10/12 05:12:15;;;;;;;9.98;3.72;;;13.20;99.90;;;;;;5016897;28;89596;-32
2023/10/12 05:14:40;;;;;;;5.93;3.75;;;13.20;99.90;;;;;;5010207;28;88522;-33
2023/10/12 05:17:09;;;;;;;6.70;3.25;;;13.20;99.90;;;;;;5015706;28;89701;-34
2023/10/12 05:19:35;;;;;;;8.60;3.30;;;13.20;99.90;;;;;;5017129;28;88627;-32
2023/10/12 05:22:01;;;;;;;11.50;4.18;;;13.20;99.90;;;;;;5014412;28;88757;-33
2023/10/12 05:24:27;;;;;;;6.50;4.22;;;13.20;99.90;;;;;;5007523;28;89796;-33
2023/10/12 05:27:09;;;;;;;8.82;3.85;;;13.20;99.90;;;;;;5003697;28;89666;-34
2023/10/12 05:29:38;;;;;;;7.30;3.92;;;13.20;99.90;;;;;;4995066;28;88734;-34
2023/10/12 05:32:18;;;;;;;4.38;3.05;;;13.20;99.90;;;;;;4999582;28;90372;-32
2023/10/12 05:34:46;;;;;;;8.13;4.00;;;13.20;99.90;;;;;;4999720;28;89938;-32
2023/10/12 05:39:47;;;;;;;7.03;3.42;;;13.20;99.90;;;;;;4993674;28;89900;-32
2023/10/12 05:42:20;;;;;;;5.95;3.33;;;13.20;99.90;;;;;;4994471;28;90463;-32
2023/10/12 05:45:05;;;;;;;4.85;3.22;;;13.20;99.90;;;;;;5026121;22;90671;-31
2023/10/12 05:47:30;;;;;;;11.02;3.72;;;13.20;99.90;;;;;;4997154;28;90440;-34
2023/10/12 05:50:00;;;;;;;10.50;3.33;;;13.20;99.90;;;;;;4997650;28;88849;-33
2023/10/12 05:52:26;;;;;;;11.95;3.47;;;13.20;99.90;;;;;;4996459;28;90237;-36
2023/10/12 05:54:57;;;;;;;5.05;3.20;;;13.20;99.90;;;;;;4997469;28;90744;-34
2023/10/12 05:57:30;;;;;;;9.55;3.08;;;13.20;99.90;;;;;;4997155;28;89595;-33
2023/10/12 05:59:58;;;;;;;5.53;3.38;;;13.10;99.90;;;;;;4996297;28;89226;-35
2023/10/12 06:02:28;;;;;;;5.15;3.40;;;13.10;99.90;;;;;;4997234;28;88867;-34
2023/10/12 06:04:53;;;;;;;5.60;2.75;;;13.10;99.90;;;;;;4996718;28;89578;-36
2023/10/12 06:07:20;;;;;;;7.38;2.83;;;13.10;99.90;;;;;;4996479;28;90130;-33
2023/10/12 06:09:45;;;;;;;8.00;3.13;;;13.10;99.90;;;;;;4995818;28;89637;-31
2023/10/12 06:12:18;;;;;;;7.88;3.22;;;13.00;99.90;;;;;;4997765;28;90185;-31
2023/10/12 06:14:53;;;;;;;8.18;3.17;;;13.00;99.90;;;;;;4976037;28;89515;-33
2023/10/12 06:17:29;;;;;;;6.65;3.33;;;13.00;99.90;;;;;;4997397;28;88688;-32
2023/10/12 06:19:55;;;;;;;7.25;2.95;;;13.00;99.90;;;;;;4996917;28;88171;-34
2023/10/12 06:22:23;;;;;;;11.02;2.90;;;12.90;99.90;;;;;;4996476;28;89825;-34
2023/10/12 06:24:49;;;;;;;;;;;12.90;99.90;;;;;;4993131;28;89314;-32
2023/10/12 06:29:47;;;;;;;6.32;3.28;;;12.80;99.90;;;;;;4980482;28;89235;-32
2023/10/12 06:32:19;;;;;;;10.75;3.47;;;12.80;99.90;;;;;;4981751;28;89886;-35
2023/10/12 06:40:37;;;;;;;8.82;3.20;;;12.70;99.90;;;;;;4986021;28;88600;-35
2023/10/12 06:45:54;;;;;;;8.70;2.92;;;12.60;99.90;;;;;;4981639;28;90015;-32
2023/10/12 06:51:02;;;;;;;5.25;2.95;;;12.60;99.90;;;;;;4968009;28;90377;-31
2023/10/12 06:53:34;;;;;;;6.65;2.88;;;12.50;99.90;;;;;;4989748;28;90434;-32
2023/10/12 06:59:21;;;;;;;8.65;3.42;;;12.50;99.90;;;;;;4983307;28;90271;-32
2023/10/12 07:04:36;;;;;;;4.43;3.33;;;12.60;99.90;;;;;;4982645;28;90173;-33
2023/10/12 07:07:10;;;;;;;8.52;3.92;;;12.60;99.90;;;;;;4985694;28;89550;-34
2023/10/12 07:09:39;;;;;;;8.27;3.90;;;12.50;99.90;;;;;;4987278;28;88116;-34
2023/10/12 07:12:07;;;;;;;7.05;4.15;;;12.60;99.90;;;;;;4996968;28;89885;-36
2023/10/12 07:14:34;;;;;;;13.85;5.22;;;12.50;99.90;;;;;;4996236;28;90246;-32
2023/10/12 07:17:02;;;;;;;16.13;4.97;;;12.60;99.90;;;;;;4996286;28;89601;-30
2023/10/12 07:19:28;;;;;;;6.15;4.07;;;12.60;99.90;;;;;;4996908;28;89410;-34
2023/10/12 07:21:55;;;;;;;10.32;5.53;;;12.60;99.90;;;;;;4994830;28;89466;-34
2023/10/12 07:24:23;;;;;;;4.90;3.75;;;12.60;99.90;;;;;;4996388;28;90187;-35
2023/10/12 07:26:49;;;;;;;8.65;4.80;;;12.60;99.90;;;;;;4996174;28;90710;-32
2023/10/12 07:29:35;;;;;;;7.07;4.05;;;12.70;99.90;;;;;;4995107;28;90309;-31
2023/10/12 07:32:16;;;;;;;8.75;4.00;;;12.70;99.90;;;;;;4985057;28;90218;-34
2023/10/12 07:34:42;;;;;;;6.43;4.38;;;12.80;99.90;;;;;;4992549;28;89097;-30
2023/10/12 07:37:08;;;;;;;9.73;4.88;;;12.80;99.90;;;;;;4995281;28;89526;-34
2023/10/12 07:39:42;;;;;;;11.65;4.95;;;12.90;99.90;;;;;;4993572;28;90350;-34
2023/10/12 07:42:12;;;;;;;11.25;4.40;;;13.00;99.90;;;;;;4995249;28;89607;-35
2023/10/12 07:44:53;;;;;;;12.80;3.80;;;13.10;99.90;;;;;;4990248;28;89886;-35
2023/10/12 07:47:25;;;;;;;7.90;4.00;;;13.10;99.90;;;;;;4979757;28;88568;-31
2023/10/12 07:49:57;;;;;;;5.13;3.63;;;13.20;99.90;;;;;;4978883;28;89845;-34
2023/10/12 07:52:33;;;;;;;12.20;4.47;;;13.30;99.90;;;;;;4980105;28;89921;-34
2023/10/12 07:54:59;;;;;;;8.57;4.07;;;13.40;99.90;;;;;;4979324;28;89241;-33
2023/10/12 07:57:36;;;;;;;9.65;4.50;;;13.40;99.90;;;;;;4978977;28;89987;-34
2023/10/12 08:13:14;;;;;;;6.72;2.85;;;13.90;99.90;;;;;;4999518;28;88000;-32
2023/10/12 08:26:39;;;;;;;14.27;3.92;;;14.30;99.90;;;;;;4983096;28;91838;-32
2023/10/12 08:29:09;;;;;;;4.80;2.60;;;14.20;99.90;;;;;;4980621;28;90091;-34
2023/10/12 08:31:43;;;;;;;8.27;2.53;;;14.30;99.90;;;;;;4982215;28;90146;-32
2023/10/12 08:39:39;;;;;;;12.50;3.08;;;14.40;99.90;;;;;;4982145;28;89431;-33
2023/10/12 08:44:51;;;;;;;9.20;2.90;;;14.50;99.90;;;;;;4997909;28;90159;-31
2023/10/12 08:47:25;;;;;;;8.32;3.45;;;14.50;99.90;;;;;;4998595;28;90658;-34
2023/10/12 08:50:01;;;;;;;6.63;2.92;;;14.50;99.90;;;;;;4987572;28;89572;-30
2023/10/12 08:52:29;;;;;;;4.18;2.53;;;14.40;99.90;;;;;;4978868;28;89344;-33
2023/10/12 08:55:04;;;;;;;7.32;2.88;;;14.50;99.90;;;;;;4978385;28;89153;-34
2023/10/12 08:57:34;;;;;;;5.07;2.55;;;14.50;99.90;;;;;;4977890;28;89790;-33
2023/10/12 09:00:24;;;;;;;4.07;2.22;;;14.50;99.90;;;;;;4979379;28;89221;-31
2023/10/12 09:02:58;;;;;;;8.20;2.88;;;14.50;99.90;;;;;;4981564;28;89027;-33
2023/10/12 09:05:28;;;;;;;5.40;2.65;;;14.50;99.90;;;;;;4980746;28;90692;-32
2023/10/12 09:13:35;;;;;;;7.75;3.55;;;14.50;99.90;;;;;;4984869;28;90583;-32
2023/10/12 09:16:09;;;;;;;5.65;2.33;;;14.40;99.90;;;;;;4998858;28;89624;-35
2023/10/12 09:18:44;;;;;;;12.85;2.78;;;14.40;99.90;;;;;;4989499;28;90264;-34
2023/10/12 09:21:25;;;;;;;5.97;2.75;;;14.50;99.90;;;;;;4978321;28;89862;-35
2023/10/12 09:24:15;;;;;;;8.77;2.50;;;14.50;99.90;;;;;;4978924;28;89949;-31
2023/10/12 09:26:57;;;;;;;7.05;2.83;;;14.50;99.90;;;;;;4978771;28;88982;-34
2023/10/12 09:29:27;;;;;;;10.20;2.83;;;14.50;99.90;;;;;;4977336;28;90221;-31
2023/10/12 09:34:46;;;;;;;6.00;2.23;;;14.50;99.90;;;;;;4976881;28;89496;-34
2023/10/12 09:37:18;;;;;;;7.80;3.08;;;14.50;99.90;;;;;;4982092;28;89987;-34
2023/10/12 09:39:45;;;;;;;12.15;3.00;;;14.60;99.90;;;;;;4982860;28;90460;-33
2023/10/12 09:42:22;;;;;;;5.90;2.83;;;14.60;99.90;;;;;;4984175;28;89593;-34
2023/10/12 09:45:01;;;;;;;12.70;3.17;;;14.70;99.90;;;;;;4995331;28;89165;-35
2023/10/12 09:47:43;;;;;;;5.57;2.40;;;14.70;99.90;;;;;;4995680;28;89614;-34
2023/10/12 09:50:13;;;;;;;6.32;2.38;;;14.60;99.90;;;;;;4995602;28;90425;-33
2023/10/12 09:52:46;;;;;;;11.52;3.67;;;14.70;99.90;;;;;;4996164;28;89469;-35
2023/10/12 09:55:24;;;;;;;6.82;1.65;;;14.70;99.90;;;;;;4995329;28;89391;-35
2023/10/12 09:57:52;;;;;;;6.13;2.13;;;14.70;99.90;;;;;;4996406;28;89602;-34
2023/10/12 10:00:28;;;;;;;8.48;2.47;;;14.70;99.90;;;;;;4995692;28;90110;-35
2023/10/12 10:02:59;;;;;;;6.03;2.70;;;14.80;99.90;;;;;;4995369;28;90738;-33
2023/10/12 10:05:51;;;;;;;7.07;2.13;;;14.90;99.90;;;;;;4997503;28;90244;-34
2023/10/12 10:08:18;;;;;;;5.13;1.90;;;14.90;99.90;;;;;;4995775;28;89604;-34
2023/10/12 10:10:45;;;;;;;7.00;2.10;;;15.00;99.90;;;;;;4994969;28;90432;-31
2023/10/12 10:13:47;;;;;;;7.25;1.98;;;15.00;99.90;;;;;;4998137;28;89278;-33
2023/10/12 10:16:19;;;;;;;6.28;2.60;;;15.10;99.90;;;;;;4988465;28;88975;-33
2023/10/12 10:18:57;;;;;;;8.07;3.25;;;15.00;99.90;;;;;;4996636;28;88605;-32
2023/10/12 10:21:31;;;;;;;8.32;2.67;;;15.10;99.90;;;;;;4996886;28;90512;-33
2023/10/12 10:23:57;;;;;;;8.95;1.95;;;15.10;99.90;;;;;;4996444;28;89187;-33
2023/10/12 10:26:30;;;;;;;9.45;1.92;;;15.20;99.90;;;;;;4995493;28;89646;-35
2023/10/12 10:29:05;;;;;;;7.40;2.13;;;15.10;99.90;;;;;;4997422;28;90131;-33
2023/10/12 10:31:36;;;;;;;5.78;1.58;;;15.20;99.90;;;;;;4996940;28;89999;-34
2023/10/12 10:34:06;;;;;;;4.75;2.20;;;15.20;99.90;;;;;;4983605;28;89605;-35
2023/10/12 10:36:35;;;;;;;8.90;2.78;;;15.30;99.90;;;;;;4976735;28;89155;-34
2023/10/12 10:44:13;;;;;;;10.32;2.40;;;15.10;99.90;;;;;;4978848;28;89236;-34
2023/10/12 10:46:43;;;;;;;5.78;1.33;;;15.10;99.90;;;;;;4980456;28;90183;-35
2023/10/12 10:49:15;;;;;;;6.00;2.25;;;15.10;99.90;;;;;;4976726;28;89352;-34
2023/10/12 10:51:47;;;;;;;5.75;1.90;;;15.10;99.90;;;;;;4979269;28;90764;-34
2023/10/12 10:54:20;;;;;;;6.22;2.53;;;15.20;99.90;;;;;;4989792;28;90674;-34
2023/10/12 10:56:47;;;;;;;2.70;1.92;;;15.20;99.90;;;;;;4988246;28;91072;-34
2023/10/12 10:59:14;;;;;;;9.68;2.20;;;15.20;99.90;;;;;;4977694;28;87900;-33
2023/10/12 11:01:48;;;;;;;5.20;1.77;;;15.30;99.90;;;;;;4976435;28;90796;-35
2023/10/12 11:04:26;;;;;;;6.90;2.15;;;15.30;99.90;;;;;;4977242;28;89818;-34
2023/10/12 11:06:53;;;;;;;5.68;1.92;;;15.40;99.90;;;;;;4977692;28;89373;-31
2023/10/12 11:09:31;;;;;;;5.70;1.95;;;15.40;99.90;;;;;;4987796;28;89281;-35
2023/10/12 11:12:00;;;;;;;5.22;2.53;;;15.40;99.90;;;;;;4991214;28;90159;-33
2023/10/12 11:14:32;;;;;;;5.00;2.35;;;15.40;99.90;;;;;;4987745;28;90809;-31
2023/10/12 11:17:00;;;;;;;7.78;2.33;;;15.40;99.90;;;;;;4981765;28;90622;-33
2023/10/12 11:19:27;;;;;;;3.75;1.80;;;15.40;99.90;;;;;;4976924;28;89075;-35
2023/10/12 11:21:53;;;;;;;7.93;2.38;;;15.40;99.90;;;;;;4980161;28;89423;-36
2023/10/12 11:24:20;;;;;;;9.48;2.28;;;15.40;99.90;;;;;;4978206;28;89755;-34
2023/10/12 11:26:54;;;;;;;6.47;1.63;;;15.40;99.90;;;;;;4981491;28;89343;-32
2023/10/12 11:29:22;;;;;;;7.50;2.08;;;15.30;99.90;;;;;;4984995;28;89359;-34
2023/10/12 11:32:16;;;;;;;7.90;2.10;;;15.30;99.90;;;;;;4996895;28;88761;-34
2023/10/12 11:34:44;;;;;;;8.20;2.30;;;15.30;99.90;;;;;;4982563;28;89604;-34
2023/10/12 11:37:13;;;;;;;10.38;2.80;;;15.30;99.90;;;;;;4985324;28;89930;-34
2023/10/12 11:39:45;;;;;;;8.20;1.80;;;15.30;99.90;;;;;;4984141;28;88676;-36
2023/10/12 11:42:14;;;;;;;5.57;2.47;;;15.30;99.90;;;;;;4985903;28;90350;-33
2023/10/12 11:44:43;;;;;;;7.45;2.42;;;15.40;99.90;;;;;;4995656;28;90400;-31
2023/10/12 11:47:37;;;;;;;10.38;2.42;;;15.40;99.90;;;;;;4995127;28;90245;-34
2023/10/12 11:50:03;;;;;;;5.95;2.25;;;15.50;99.90;;;;;;5003327;28;88333;-34
2023/10/12 11:52:34;;;;;;;6.43;2.42;;;15.40;99.90;;;;;;5004102;28;91250;-34
2023/10/12 11:55:20;;;;;;;7.57;2.60;;;15.40;99.90;;;;;;4997577;28;90013;-35
2023/10/12 11:57:54;;;;;;;7.57;2.55;;;15.40;99.90;;;;;;4980105;28;90699;-32
2023/10/12 12:02:47;;;;;;;6.50;1.92;;;15.40;99.90;;;;;;4989718;28;90141;-32
2023/10/12 12:05:13;;;;;;;9.43;2.40;;;15.40;99.90;;;;;;4978181;28;90220;-35
2023/10/12 12:07:38;;;;;;;9.48;2.42;;;15.40;99.90;;;;;;4990436;28;89516;-34
2023/10/12 12:10:07;;;;;;;8.15;2.10;;;15.50;99.90;;;;;;4986945;28;90199;-32
2023/10/12 12:12:38;;;;;;;10.45;2.00;;;15.40;99.90;;;;;;4988014;28;90170;-35
2023/10/12 12:15:05;;;;;;;4.35;1.92;;;15.40;99.90;;;;;;4982081;28;89568;-35
2023/10/12 12:17:30;;;;;;;9.35;2.30;;;15.40;99.90;;;;;;4977866;28;88907;-34
2023/10/12 12:19:56;;;;;;;8.95;1.95;;;15.40;99.90;;;;;;4983962;28;89258;-33
2023/10/12 12:22:25;;;;;;;4.97;2.45;;;15.20;99.90;;;;;;4979538;28;90026;-34
2023/10/12 12:24:51;;;;;;;10.35;2.00;;;15.30;99.90;;;;;;4981575;28;88922;-35
2023/10/12 12:27:49;;;;;;;4.03;1.85;;;15.20;99.90;;;;;;4982442;28;89618;-33
2023/10/12 12:30:22;;;;;;;6.68;2.20;;;15.20;99.90;;;;;;4991845;28;87586;-34
2023/10/12 12:32:49;;;;;;;9.25;3.03;;;15.20;99.90;;;;;;4984621;28;90112;-33
2023/10/12 12:35:15;;;;;;;6.80;2.25;;;15.20;99.90;;;;;;4984197;28;90465;-33
2023/10/12 12:37:41;;;;;;;2.88;1.75;;;15.20;99.90;;;;;;4995664;28;92128;-35
2023/10/12 12:40:27;;;;;;;5.32;2.58;;;15.20;99.90;;;;;;4969225;28;89547;-32
2023/10/12 12:42:53;;;;;;;7.25;2.83;;;15.20;99.90;;;;;;4977490;28;90023;-34
2023/10/12 12:45:19;;;;;;;6.55;2.55;;;15.10;99.90;;;;;;5001792;28;90327;-31
2023/10/12 12:47:45;;;;;;;8.88;1.80;;;15.30;99.90;;;;;;4994162;28;89924;-34
2023/10/12 12:50:10;;;;;;;9.73;2.40;;;15.20;99.90;;;;;;4993470;28;87576;-32
2023/10/12 12:52:40;;;;;;;8.02;2.22;;;15.20;99.90;;;;;;5007076;28;90406;-33
2023/10/12 12:55:16;;;;;;;17.02;3.13;;;15.20;99.90;;;;;;4988972;28;88897;-34
2023/10/12 12:57:46;;;;;;;4.15;2.15;;;15.30;99.90;;;;;;4997981;28;90414;-33
2023/10/12 13:00:19;;;;;;;23.02;2.78;;;15.30;99.90;;;;;;5000083;28;88059;-32
2023/10/12 13:02:46;;;;;;;9.98;2.65;;;15.30;99.90;;;;;;4995751;28;89740;-35
2023/10/12 13:05:12;;;;;;;3.83;2.30;;;15.30;99.90;;;;;;4994857;28;89694;-35
2023/10/12 13:07:38;;;;;;;4.53;2.13;;;15.30;99.90;;;;;;4984241;28;89312;-33
2023/10/12 13:10:06;;;;;;;12.45;3.22;;;15.40;99.90;;;;;;4996742;28;88756;-32
2023/10/12 13:12:33;;;;;;;17.08;3.60;;;15.40;99.90;;;;;;5000614;28;90004;-33
2023/10/12 13:15:01;;;;;;;4.53;1.90;;;15.40;99.90;;;;;;4990330;28;89898;-34
2023/10/12 13:17:30;;;;;;;9.23;2.90;;;15.30;99.90;;;;;;5001096;28;89907;-32
2023/10/12 13:19:59;;;;;;;8.75;2.70;;;15.30;99.90;;;;;;5004696;28;89187;-33
2023/10/12 13:22:26;;;;;;;5.03;2.22;;;15.30;99.90;;;;;;4994688;28;90264;-33
2023/10/12 13:24:56;;;;;;;13.30;3.08;;;15.20;99.90;;;;;;4989963;28;90107;-33
2023/10/12 13:27:32;;;;;;;6.78;2.70;;;15.20;99.90;;;;;;5003360;28;89335;-34
2023/10/12 13:30:09;;;;;;;6.68;2.55;;;15.20;99.90;;;;;;4992702;28;87921;-35
2023/10/12 13:32:35;;;;;;;6.47;2.42;;;15.10;99.90;;;;;;5007053;28;90179;-34
2023/10/12 13:35:17;;;;;;;6.82;2.92;;;15.00;99.90;;;;;;4988890;28;87914;-35
2023/10/12 13:37:46;;;;;;;6.47;2.58;;;15.00;99.90;;;;;;4996429;28;88646;-34
2023/10/12 13:40:15;;;;;;;7.07;2.35;;;15.00;99.90;;;;;;4998847;28;88256;-33
2023/10/12 13:42:44;;;;;;;7.28;1.85;;;15.00;99.90;;;;;;5004461;28;90368;-33
2023/10/12 13:45:12;;;;;;;6.25;2.40;;;15.00;99.90;;;;;;4995364;28;89843;-32
2023/10/12 13:47:42;;;;;;;;;;;15.00;99.90;;;;;;4987795;28;89093;-33
2023/10/12 13:50:11;;;;;;;7.40;2.60;;;14.90;99.90;;;;;;4989385;28;89244;-34
2023/10/12 13:52:38;;;;;;;5.32;3.05;;;14.80;99.90;;;;;;4993386;28;89462;-33
2023/10/12 13:55:11;;;;;;;3.88;1.85;;;14.80;99.90;;;;;;5007228;28;88828;-36
2023/10/12 13:57:57;;;;;;;4.00;2.00;;;14.80;99.90;;;;;;5007436;28;90100;-33
2023/10/12 14:00:26;;;;;;;10.13;2.50;;;14.70;99.90;;;;;;5006176;28;88834;-34
2023/10/12 14:02:57;;;;;;;6.13;2.03;;;14.80;99.90;;;;;;5003375;28;89279;-34
2023/10/12 14:05:29;;;;;;;9.82;2.25;;;14.80;99.90;;;;;;5000077;28;89675;-34
2023/10/12 14:07:58;;;;;;;8.50;2.58;;;14.70;99.90;;;;;;4990951;28;89202;-31
2023/10/12 14:10:24;;;;;;;;;;;14.60;99.90;;;;;;5001508;28;89348;-36
2023/10/12 14:12:53;;;;;;;8.98;3.22;;;14.60;99.90;;;;;;5003103;28;88240;-33
2023/10/12 14:15:21;;;;;;;11.93;3.33;;;14.60;99.90;;;;;;4997864;28;89903;-35
2023/10/12 14:17:47;;;;;;;7.33;2.73;;;14.60;99.90;;;;;;4995850;28;90034;-35
2023/10/12 14:20:13;;;;;;;8.73;3.10;;;14.50;99.90;;;;;;4994384;28;89642;-34
2023/10/12 14:22:44;;;;;;;7.97;3.67;;;14.50;99.90;;;;;;4995097;28;90177;-34
2023/10/12 14:25:14;;;;;;;6.65;2.92;;;14.50;99.90;;;;;;4976014;28;89348;-34
2023/10/12 14:27:42;;;;;;;10.68;4.10;;;14.50;99.90;;;;;;4992534;28;89300;-31
2023/10/12 14:30:25;;;;;;;12.23;3.95;;;14.40;99.90;;;;;;5002475;28;89655;-32
2023/10/12 14:32:51;;;;;;;9.23;3.50;;;14.50;99.90;;;;;;4989792;28;89874;-34
2023/10/12 14:35:18;;;;;;;8.82;3.55;;;14.40;99.90;;;;;;4996563;28;90395;-34
2023/10/12 14:37:44;;;;;;;6.10;3.60;;;14.40;99.90;;;;;;4987929;28;89638;-33
2023/10/12 14:40:18;;;;;;;6.55;3.30;;;14.40;99.90;;;;;;4997391;28;88691;-36
2023/10/12 14:42:44;;;;;;;10.98;3.60;;;14.40;99.90;;;;;;4993012;28;89892;-35
2023/10/12 14:45:10;;;;;;;8.18;3.35;;;14.40;99.90;;;;;;4992503;28;91015;-32
2023/10/12 14:47:36;;;;;;;6.85;3.22;;;14.30;99.90;;;;;;4982443;28;90006;-35
2023/10/12 14:50:05;;;;;;;6.90;3.17;;;14.30;99.90;;;;;;4985905;28;89134;-33
2023/10/12 14:52:38;;;;;;;8.80;3.67;;;14.20;99.90;;;;;;4990089;28;91336;-34
2023/10/12 14:55:24;;;;;;;8.98;3.67;;;14.20;99.90;;;;;;4989148;28;90415;-35
2023/10/12 14:57:50;;;;;;;8.40;3.60;;;14.20;99.90;;;;;;4985902;28;89185;-33
2023/10/12 15:00:25;;;;;;;8.77;3.80;;;14.10;99.90;;;;;;4987207;28;89081;-32
2023/10/12 15:02:55;;;;;;;7.00;2.50;;;14.10;99.90;;;;;;4988092;28;90038;-34
2023/10/12 15:05:22;;;;;;;11.38;4.55;;;14.10;99.90;;;;;;4962388;28;90611;-33
2023/10/12 15:07:48;;;;;;;11.77;3.75;;;14.00;99.90;;;;;;4977501;28;90538;-34
2023/10/12 15:10:17;;;;;;;10.05;4.10;;;14.00;99.90;;;;;;4980487;28;88397;-34
2023/10/12 15:12:43;;;;;;;12.25;4.38;;;14.00;99.90;;;;;;4978619;28;91167;-34